sensor_id;sensor_type;location;lat;lon;timestamp;pressure;altitude;pressure_sealevel;temperature;humidity
83843;BME280;73869;52.336;21.182;2023-12-04T00:00:29;100997.31;;;-2.11;88.71
83843;BME280;73869;52.336;21.182;2023-12-04T00:02:56;100994.13;;;-2.05;88.21
83843;BME280;73869;52.336;21.182;2023-12-04T00:05:23;100993.53;;;-2.09;88.35
83843;BME280;73869;52.336;21.182;2023-12-04T00:07:51;100991.13;;;-2.12;89.17
83843;BME280;73869;52.336;21.182;2023-12-04T00:10:18;101000.09;;;-2.13;89.15
83843;BME280;73869;52.336;21.182;2023-12-04T00:12:45;100993.91;;;-2.13;88.71
83843;BME280;73869;52.336;21.182;2023-12-04T00:15:12;100997.31;;;-2.11;88.59
83843;BME280;73869;52.336;21.182;2023-12-04T00:17:38;100998.00;;;-2.09;89.21
83843;BME280;73869;52.336;21.182;2023-12-04T00:20:06;101001.53;;;-2.09;88.41
83843;BME280;73869;52.336;21.182;2023-12-04T00:22:34;101006.59;;;-2.06;88.55
83843;BME280;73869;52.336;21.182;2023-12-04T00:25:03;100978.34;;;-2.18;88.48
83843;BME280;73869;52.336;21.182;2023-12-04T00:27:30;101015.03;;;-2.01;88.53
83843;BME280;73869;52.336;21.182;2023-12-04T00:29:57;101010.69;;;-2.02;88.94
83843;BME280;73869;52.336;21.182;2023-12-04T00:32:24;101007.69;;;-2.08;88.84
83843;BME280;73869;52.336;21.182;2023-12-04T00:34:50;101006.19;;;-2.01;88.59
83843;BME280;73869;52.336;21.182;2023-12-04T00:37:17;101007.31;;;-2.04;89.34
83843;BME280;73869;52.336;21.182;2023-12-04T00:39:44;101007.19;;;-2.02;88.77
83843;BME280;73869;52.336;21.182;2023-12-04T00:42:12;101019.84;;;-1.95;88.69
83843;BME280;73869;52.336;21.182;2023-12-04T00:44:39;101013.84;;;-1.97;88.57
83843;BME280;73869;52.336;21.182;2023-12-04T00:47:06;101017.91;;;-1.93;89.01
83843;BME280;73869;52.336;21.182;2023-12-04T00:49:33;101025.66;;;-1.90;88.13
83843;BME280;73869;52.336;21.182;2023-12-04T00:51:59;101014.53;;;-1.95;89.23
83843;BME280;73869;52.336;21.182;2023-12-04T00:54:26;101019.38;;;-1.89;88.61
83843;BME280;73869;52.336;21.182;2023-12-04T00:56:53;101019.72;;;-1.82;88.54
83843;BME280;73869;52.336;21.182;2023-12-04T00:59:21;101027.34;;;-1.89;89.11
83843;BME280;73869;52.336;21.182;2023-12-04T01:01:48;101026.97;;;-1.84;88.78
83843;BME280;73869;52.336;21.182;2023-12-04T01:04:15;101019.84;;;-1.84;88.89
83843;BME280;73869;52.336;21.182;2023-12-04T01:06:41;101016.06;;;-1.81;88.95
83843;BME280;73869;52.336;21.182;2023-12-04T01:09:08;101014.66;;;-1.85;88.82
83843;BME280;73869;52.336;21.182;2023-12-04T01:11:35;101017.53;;;-1.88;88.95
83843;BME280;73869;52.336;21.182;2023-12-04T01:14:02;101023.94;;;-1.80;89.08
83843;BME280;73869;52.336;21.182;2023-12-04T01:16:30;101027.31;;;-1.78;88.85
83843;BME280;73869;52.336;21.182;2023-12-04T01:18:57;101027.09;;;-1.86;89.04
83843;BME280;73869;52.336;21.182;2023-12-04T01:21:24;101026.47;;;-1.78;88.08
83843;BME280;73869;52.336;21.182;2023-12-04T01:23:50;101033.75;;;-1.80;89.15
83843;BME280;73869;52.336;21.182;2023-12-04T01:26:17;101027.97;;;-1.85;89.33
83843;BME280;73869;52.336;21.182;2023-12-04T01:28:44;101039.44;;;-1.85;89.52
83843;BME280;73869;52.336;21.182;2023-12-04T01:31:11;101028.31;;;-1.79;89.24
83843;BME280;73869;52.336;21.182;2023-12-04T01:33:39;101030.59;;;-1.74;88.68
83843;BME280;73869;52.336;21.182;2023-12-04T01:36:06;101030.84;;;-1.77;88.83
83843;BME280;73869;52.336;21.182;2023-12-04T01:38:33;101041.63;;;-1.79;88.91
83843;BME280;73869;52.336;21.182;2023-12-04T01:41:00;101043.53;;;-1.81;89.39
83843;BME280;73869;52.336;21.182;2023-12-04T01:43:27;101052.00;;;-1.76;89.60
83843;BME280;73869;52.336;21.182;2023-12-04T01:45:55;101051.03;;;-1.75;88.94
83843;BME280;73869;52.336;21.182;2023-12-04T01:48:22;101044.75;;;-1.74;89.32
83843;BME280;73869;52.336;21.182;2023-12-04T01:50:51;101046.91;;;-1.68;88.73
83843;BME280;73869;52.336;21.182;2023-12-04T01:53:18;101040.84;;;-1.70;89.18
83843;BME280;73869;52.336;21.182;2023-12-04T01:55:46;101033.59;;;-1.68;88.46
83843;BME280;73869;52.336;21.182;2023-12-04T01:58:13;101038.31;;;-1.71;88.62
83843;BME280;73869;52.336;21.182;2023-12-04T02:00:40;101061.94;;;-1.78;89.17
83843;BME280;73869;52.336;21.182;2023-12-04T02:03:08;101063.38;;;-1.74;88.95
83843;BME280;73869;52.336;21.182;2023-12-04T02:05:35;101071.13;;;-1.71;89.25
83843;BME280;73869;52.336;21.182;2023-12-04T02:08:03;101062.06;;;-1.79;88.63
83843;BME280;73869;52.336;21.182;2023-12-04T02:10:30;101070.47;;;-1.63;88.52
83843;BME280;73869;52.336;21.182;2023-12-04T02:12:57;101072.19;;;-1.62;88.39
83843;BME280;73869;52.336;21.182;2023-12-04T02:15:24;101079.22;;;-1.72;88.07
83843;BME280;73869;52.336;21.182;2023-12-04T02:17:53;101073.78;;;-1.71;87.64
83843;BME280;73869;52.336;21.182;2023-12-04T02:20:20;101070.59;;;-1.65;87.22
83843;BME280;73869;52.336;21.182;2023-12-04T02:22:47;101065.53;;;-1.68;87.53
83843;BME280;73869;52.336;21.182;2023-12-04T02:25:15;101066.25;;;-1.66;87.30
83843;BME280;73869;52.336;21.182;2023-12-04T02:27:48;101068.41;;;-1.60;86.34
83843;BME280;73869;52.336;21.182;2023-12-04T02:30:18;101070.97;;;-1.69;86.49
83843;BME280;73869;52.336;21.182;2023-12-04T02:32:47;101075.59;;;-1.71;86.06
83843;BME280;73869;52.336;21.182;2023-12-04T02:35:16;101070.63;;;-1.76;86.34
83843;BME280;73869;52.336;21.182;2023-12-04T02:37:46;101084.34;;;-1.80;85.82
83843;BME280;73869;52.336;21.182;2023-12-04T02:40:15;101078.88;;;-1.79;85.08
83843;BME280;73869;52.336;21.182;2023-12-04T02:42:42;101079.84;;;-1.80;84.19
83843;BME280;73869;52.336;21.182;2023-12-04T02:45:09;101077.16;;;-1.80;83.95
83843;BME280;73869;52.336;21.182;2023-12-04T02:47:36;101069.44;;;-1.83;83.54
83843;BME280;73869;52.336;21.182;2023-12-04T02:50:03;101081.41;;;-1.88;84.15
83843;BME280;73869;52.336;21.182;2023-12-04T02:52:30;101075.25;;;-1.89;84.96
83843;BME280;73869;52.336;21.182;2023-12-04T02:54:57;101077.69;;;-1.86;84.36
83843;BME280;73869;52.336;21.182;2023-12-04T02:57:25;101083.84;;;-1.85;84.86
83843;BME280;73869;52.336;21.182;2023-12-04T02:59:52;101084.19;;;-1.90;85.25
83843;BME280;73869;52.336;21.182;2023-12-04T03:02:19;101085.31;;;-1.92;85.03
83843;BME280;73869;52.336;21.182;2023-12-04T03:04:46;101076.25;;;-2.01;85.22
83843;BME280;73869;52.336;21.182;2023-12-04T03:07:12;101083.97;;;-1.98;85.60
83843;BME280;73869;52.336;21.182;2023-12-04T03:09:39;101091.72;;;-1.95;85.50
83843;BME280;73869;52.336;21.182;2023-12-04T03:12:06;101083.63;;;-1.93;86.25
83843;BME280;73869;52.336;21.182;2023-12-04T03:14:34;101099.00;;;-1.97;86.19
83843;BME280;73869;52.336;21.182;2023-12-04T03:17:01;101098.00;;;-1.96;86.25
83843;BME280;73869;52.336;21.182;2023-12-04T03:19:28;101094.00;;;-2.01;86.58
83843;BME280;73869;52.336;21.182;2023-12-04T03:21:54;101100.03;;;-1.88;86.36
83843;BME280;73869;52.336;21.182;2023-12-04T03:24:21;101107.69;;;-1.95;87.02
83843;BME280;73869;52.336;21.182;2023-12-04T03:26:48;101109.97;;;-2.01;87.39
83843;BME280;73869;52.336;21.182;2023-12-04T03:29:15;101114.47;;;-2.02;87.26
83843;BME280;73869;52.336;21.182;2023-12-04T03:31:46;101120.03;;;-2.05;88.01
83843;BME280;73869;52.336;21.182;2023-12-04T03:34:12;101116.41;;;-2.04;87.15
83843;BME280;73869;52.336;21.182;2023-12-04T03:36:39;101115.31;;;-2.12;87.52
83843;BME280;73869;52.336;21.182;2023-12-04T03:39:06;101117.16;;;-2.13;88.21
83843;BME280;73869;52.336;21.182;2023-12-04T03:41:33;101120.38;;;-2.09;87.37
83843;BME280;73869;52.336;21.182;2023-12-04T03:43:59;101129.59;;;-2.13;86.84
83843;BME280;73869;52.336;21.182;2023-12-04T03:46:26;101130.78;;;-2.17;87.18
83843;BME280;73869;52.336;21.182;2023-12-04T03:48:55;101127.66;;;-2.22;88.08
83843;BME280;73869;52.336;21.182;2023-12-04T03:51:22;101123.56;;;-2.26;87.58
83843;BME280;73869;52.336;21.182;2023-12-04T03:53:48;101131.91;;;-2.31;87.85
83843;BME280;73869;52.336;21.182;2023-12-04T03:56:15;101122.22;;;-2.32;88.34
83843;BME280;73869;52.336;21.182;2023-12-04T03:58:42;101125.34;;;-2.27;87.39
83843;BME280;73869;52.336;21.182;2023-12-04T04:01:09;101133.47;;;-2.28;87.71
83843;BME280;73869;52.336;21.182;2023-12-04T04:03:36;101138.16;;;-2.32;87.51
83843;BME280;73869;52.336;21.182;2023-12-04T04:06:04;101139.88;;;-2.31;87.31
83843;BME280;73869;52.336;21.182;2023-12-04T04:08:32;101131.97;;;-2.32;87.03
83843;BME280;73869;52.336;21.182;2023-12-04T04:10:58;101126.31;;;-2.39;87.62
83843;BME280;73869;52.336;21.182;2023-12-04T04:13:25;101138.41;;;-2.35;87.26
83843;BME280;73869;52.336;21.182;2023-12-04T04:15:52;101130.66;;;-2.38;87.40
83843;BME280;73869;52.336;21.182;2023-12-04T04:18:19;101136.00;;;-2.38;86.83
83843;BME280;73869;52.336;21.182;2023-12-04T04:20:46;101135.25;;;-2.40;87.16
83843;BME280;73869;52.336;21.182;2023-12-04T04:23:14;101135.88;;;-2.36;86.70
83843;BME280;73869;52.336;21.182;2023-12-04T04:25:41;101142.03;;;-2.36;87.18
83843;BME280;73869;52.336;21.182;2023-12-04T04:28:07;101138.28;;;-2.33;86.22
83843;BME280;73869;52.336;21.182;2023-12-04T04:30:37;101146.75;;;-2.39;86.73
83843;BME280;73869;52.336;21.182;2023-12-04T04:33:05;101143.59;;;-2.44;86.66
83843;BME280;73869;52.336;21.182;2023-12-04T04:35:32;101146.63;;;-2.38;86.46
83843;BME280;73869;52.336;21.182;2023-12-04T04:37:59;101141.06;;;-2.35;86.12
83843;BME280;73869;52.336;21.182;2023-12-04T04:40:27;101146.75;;;-2.39;86.32
83843;BME280;73869;52.336;21.182;2023-12-04T04:42:56;101131.84;;;-2.42;86.59
83843;BME280;73869;52.336;21.182;2023-12-04T04:45:23;101146.13;;;-2.43;86.72
83843;BME280;73869;52.336;21.182;2023-12-04T04:47:50;101148.06;;;-2.45;86.67
83843;BME280;73869;52.336;21.182;2023-12-04T04:50:18;101142.75;;;-2.45;86.51
83843;BME280;73869;52.336;21.182;2023-12-04T04:52:46;101142.00;;;-2.47;86.89
83843;BME280;73869;52.336;21.182;2023-12-04T04:55:12;101152.44;;;-2.44;86.73
83843;BME280;73869;52.336;21.182;2023-12-04T04:57:41;101149.88;;;-2.45;86.88
83843;BME280;73869;52.336;21.182;2023-12-04T05:00:08;101154.22;;;-2.44;86.14
83843;BME280;73869;52.336;21.182;2023-12-04T05:02:35;101144.09;;;-2.50;86.24
83843;BME280;73869;52.336;21.182;2023-12-04T05:05:03;101155.03;;;-2.55;86.58
83843;BME280;73869;52.336;21.182;2023-12-04T05:07:30;101148.41;;;-2.49;86.62
83843;BME280;73869;52.336;21.182;2023-12-04T05:09:57;101156.41;;;-2.49;86.29
83843;BME280;73869;52.336;21.182;2023-12-04T05:12:23;101158.56;;;-2.54;86.31
83843;BME280;73869;52.336;21.182;2023-12-04T05:14:52;101151.88;;;-2.60;87.05
83843;BME280;73869;52.336;21.182;2023-12-04T05:17:18;101157.25;;;-2.49;86.57
83843;BME280;73869;52.336;21.182;2023-12-04T05:19:45;101162.91;;;-2.53;86.05
83843;BME280;73869;52.336;21.182;2023-12-04T05:22:12;101160.47;;;-2.56;86.01
83843;BME280;73869;52.336;21.182;2023-12-04T05:24:39;101162.91;;;-2.53;85.93
83843;BME280;73869;52.336;21.182;2023-12-04T05:27:06;101164.97;;;-2.57;86.69
83843;BME280;73869;52.336;21.182;2023-12-04T05:29:32;101171.00;;;-2.55;86.30
83843;BME280;73869;52.336;21.182;2023-12-04T05:32:01;101164.00;;;-2.56;85.83
83843;BME280;73869;52.336;21.182;2023-12-04T05:34:27;101170.56;;;-2.49;85.12
83843;BME280;73869;52.336;21.182;2023-12-04T05:36:55;101181.63;;;-2.55;85.99
83843;BME280;73869;52.336;21.182;2023-12-04T05:39:22;101174.88;;;-2.59;85.90
83843;BME280;73869;52.336;21.182;2023-12-04T05:41:49;101176.69;;;-2.59;85.98
83843;BME280;73869;52.336;21.182;2023-12-04T05:44:15;101173.63;;;-2.66;87.18
83843;BME280;73869;52.336;21.182;2023-12-04T05:46:42;101177.53;;;-2.59;86.52
83843;BME280;73869;52.336;21.182;2023-12-04T05:49:10;101173.91;;;-2.58;86.16
83843;BME280;73869;52.336;21.182;2023-12-04T05:51:37;101172.66;;;-2.65;86.39
83843;BME280;73869;52.336;21.182;2023-12-04T05:54:04;101175.19;;;-2.63;86.14
83843;BME280;73869;52.336;21.182;2023-12-04T05:56:31;101171.25;;;-2.58;86.19
83843;BME280;73869;52.336;21.182;2023-12-04T05:58:57;101179.81;;;-2.65;86.26
83843;BME280;73869;52.336;21.182;2023-12-04T06:01:24;101185.00;;;-2.64;86.62
83843;BME280;73869;52.336;21.182;2023-12-04T06:03:51;101177.53;;;-2.59;86.29
83843;BME280;73869;52.336;21.182;2023-12-04T06:06:19;101184.16;;;-2.64;87.30
83843;BME280;73869;52.336;21.182;2023-12-04T06:08:46;101192.25;;;-2.66;86.83
83843;BME280;73869;52.336;21.182;2023-12-04T06:11:13;101192.00;;;-2.63;86.90
83843;BME280;73869;52.336;21.182;2023-12-04T06:13:40;101195.13;;;-2.69;87.35
83843;BME280;73869;52.336;21.182;2023-12-04T06:16:08;101203.13;;;-2.69;86.88
83843;BME280;73869;52.336;21.182;2023-12-04T06:18:35;101207.81;;;-2.72;86.92
83843;BME280;73869;52.336;21.182;2023-12-04T06:21:02;101192.13;;;-2.64;86.24
83843;BME280;73869;52.336;21.182;2023-12-04T06:23:31;101195.88;;;-2.67;86.07
83843;BME280;73869;52.336;21.182;2023-12-04T06:25:58;101196.00;;;-2.68;86.64
83843;BME280;73869;52.336;21.182;2023-12-04T06:28:26;101203.13;;;-2.69;86.88
83843;BME280;73869;52.336;21.182;2023-12-04T06:30:53;101200.81;;;-2.73;86.32
83843;BME280;73869;52.336;21.182;2023-12-04T06:33:20;101204.53;;;-2.76;86.62
83843;BME280;73869;52.336;21.182;2023-12-04T06:35:48;101213.75;;;-2.69;86.71
83843;BME280;73869;52.336;21.182;2023-12-04T06:38:15;101215.19;;;-2.65;86.32
83843;BME280;73869;52.336;21.182;2023-12-04T06:40:44;101209.50;;;-2.72;86.32
83843;BME280;73869;52.336;21.182;2023-12-04T06:43:11;101205.19;;;-2.61;85.32
83843;BME280;73869;52.336;21.182;2023-12-04T06:45:41;101195.13;;;-2.69;86.42
83843;BME280;73869;52.336;21.182;2023-12-04T06:48:10;101194.91;;;-2.66;86.16
83843;BME280;73869;52.336;21.182;2023-12-04T06:50:39;101210.72;;;-2.64;85.62
83843;BME280;73869;52.336;21.182;2023-12-04T06:53:06;101209.28;;;-2.68;85.02
83843;BME280;73869;52.336;21.182;2023-12-04T06:55:33;101209.06;;;-2.65;85.68
83843;BME280;73869;52.336;21.182;2023-12-04T06:58:01;101209.56;;;-2.60;85.44
83843;BME280;73869;52.336;21.182;2023-12-04T07:00:28;101202.00;;;-2.66;85.41
83843;BME280;73869;52.336;21.182;2023-12-04T07:02:55;101209.88;;;-2.65;86.02
83843;BME280;73869;52.336;21.182;2023-12-04T07:05:22;101209.28;;;-2.68;85.77
83843;BME280;73869;52.336;21.182;2023-12-04T07:07:49;101210.97;;;-2.67;85.83
83843;BME280;73869;52.336;21.182;2023-12-04T07:10:15;101208.22;;;-2.55;85.04
83843;BME280;73869;52.336;21.182;2023-12-04T07:12:43;101207.28;;;-2.54;85.74
83843;BME280;73869;52.336;21.182;2023-12-04T07:15:12;101194.78;;;-2.64;85.46
83843;BME280;73869;52.336;21.182;2023-12-04T07:17:39;101215.75;;;-2.49;84.28
83843;BME280;73869;52.336;21.182;2023-12-04T07:20:06;101212.81;;;-2.57;85.55
83843;BME280;73869;52.336;21.182;2023-12-04T07:22:33;101208.47;;;-2.58;85.72
83843;BME280;73869;52.336;21.182;2023-12-04T07:25:00;101215.38;;;-2.55;85.43
83843;BME280;73869;52.336;21.182;2023-12-04T07:27:27;101214.03;;;-2.50;84.70
83843;BME280;73869;52.336;21.182;2023-12-04T07:29:54;101226.38;;;-2.49;84.94
83843;BME280;73869;52.336;21.182;2023-12-04T07:32:22;101221.78;;;-2.47;84.40
83843;BME280;73869;52.336;21.182;2023-12-04T07:35:07;101213.41;;;-2.53;85.17
83843;BME280;73869;52.336;21.182;2023-12-04T07:37:34;101222.75;;;-2.48;85.47
83843;BME280;73869;52.336;21.182;2023-12-04T07:40:01;101226.03;;;-2.44;84.96
83843;BME280;73869;52.336;21.182;2023-12-04T07:42:29;101234.25;;;-2.47;84.84
83843;BME280;73869;52.336;21.182;2023-12-04T07:44:56;101227.34;;;-2.50;85.62
83843;BME280;73869;52.336;21.182;2023-12-04T07:47:25;101235.31;;;-2.50;85.59
83843;BME280;73869;52.336;21.182;2023-12-04T07:49:52;101239.09;;;-2.41;85.21
83843;BME280;73869;52.336;21.182;2023-12-04T07:52:19;101238.00;;;-2.39;85.60
83843;BME280;73869;52.336;21.182;2023-12-04T07:54:46;101232.91;;;-2.42;85.63
83843;BME280;73869;52.336;21.182;2023-12-04T07:57:12;101230.88;;;-2.38;84.51
83843;BME280;73869;52.336;21.182;2023-12-04T07:59:39;101212.75;;;-2.44;83.83
83843;BME280;73869;52.336;21.182;2023-12-04T08:02:06;101238.22;;;-2.42;85.20
83843;BME280;73869;52.336;21.182;2023-12-04T08:04:36;101239.94;;;-2.41;85.43
83843;BME280;73869;52.336;21.182;2023-12-04T08:07:03;101240.66;;;-2.39;84.26
83843;BME280;73869;52.336;21.182;2023-12-04T08:09:30;101244.28;;;-2.40;84.58
83843;BME280;73869;52.336;21.182;2023-12-04T08:11:58;101236.44;;;-2.41;84.31
83843;BME280;73869;52.336;21.182;2023-12-04T08:14:24;101246.34;;;-2.32;83.96
83843;BME280;73869;52.336;21.182;2023-12-04T08:16:53;101243.09;;;-2.36;84.79
83843;BME280;73869;52.336;21.182;2023-12-04T08:19:20;101245.88;;;-2.37;85.02
83843;BME280;73869;52.336;21.182;2023-12-04T08:21:49;101239.47;;;-2.35;85.27
83843;BME280;73869;52.336;21.182;2023-12-04T08:24:16;101249.56;;;-2.16;84.72
83843;BME280;73869;52.336;21.182;2023-12-04T08:26:44;101250.88;;;-2.11;84.79
83843;BME280;73869;52.336;21.182;2023-12-04T08:29:11;101248.81;;;-2.18;84.05
83843;BME280;73869;52.336;21.182;2023-12-04T08:31:37;101261.50;;;-2.22;85.07
83843;BME280;73869;52.336;21.182;2023-12-04T08:34:04;101261.50;;;-2.22;84.72
83843;BME280;73869;52.336;21.182;2023-12-04T08:36:31;101262.59;;;-2.24;84.27
83843;BME280;73869;52.336;21.182;2023-12-04T08:38:59;101272.94;;;-2.32;85.05
83843;BME280;73869;52.336;21.182;2023-12-04T08:41:26;101266.22;;;-2.25;84.92
83843;BME280;73869;52.336;21.182;2023-12-04T08:43:54;101268.44;;;-2.19;84.03
83843;BME280;73869;52.336;21.182;2023-12-04T08:46:21;101267.44;;;-2.18;84.13
83843;BME280;73869;52.336;21.182;2023-12-04T08:48:48;101264.16;;;-2.22;84.61
83843;BME280;73869;52.336;21.182;2023-12-04T08:51:16;101270.59;;;-2.24;84.26
83843;BME280;73869;52.336;21.182;2023-12-04T08:53:43;101278.22;;;-2.20;84.12
83843;BME280;73869;52.336;21.182;2023-12-04T08:56:12;101284.38;;;-2.19;84.43
83843;BME280;73869;52.336;21.182;2023-12-04T08:58:39;101281.22;;;-2.24;84.49
83843;BME280;73869;52.336;21.182;2023-12-04T09:01:06;101288.34;;;-2.25;84.44
83843;BME280;73869;52.336;21.182;2023-12-04T09:03:33;101282.66;;;-2.31;84.90
83843;BME280;73869;52.336;21.182;2023-12-04T09:06:00;101292.44;;;-2.32;84.31
83843;BME280;73869;52.336;21.182;2023-12-04T09:08:27;101235.00;;;-2.69;84.63
83843;BME280;73869;52.336;21.182;2023-12-04T09:10:54;101294.97;;;-2.30;83.71
83843;BME280;73869;52.336;21.182;2023-12-04T09:13:23;101291.56;;;-2.32;84.40
83843;BME280;73869;52.336;21.182;2023-12-04T09:16:02;101291.56;;;-2.32;84.89
83843;BME280;73869;52.336;21.182;2023-12-04T09:18:29;101297.75;;;-2.32;84.25
83843;BME280;73869;52.336;21.182;2023-12-04T09:20:55;101298.47;;;-2.30;84.22
83843;BME280;73869;52.336;21.182;2023-12-04T09:23:22;101296.06;;;-2.33;84.00
83843;BME280;73869;52.336;21.182;2023-12-04T09:25:49;101284.53;;;-2.44;84.78
83843;BME280;73869;52.336;21.182;2023-12-04T09:28:17;101291.81;;;-2.35;83.53
83843;BME280;73869;52.336;21.182;2023-12-04T09:30:45;101290.03;;;-2.24;83.07
83843;BME280;73869;52.336;21.182;2023-12-04T09:33:12;101291.63;;;-2.21;83.19
83843;BME280;73869;52.336;21.182;2023-12-04T09:35:39;101279.00;;;-2.30;83.50
83843;BME280;73869;52.336;21.182;2023-12-04T09:38:24;101270.41;;;-2.34;82.95
83843;BME280;73869;52.336;21.182;2023-12-04T09:41:16;101275.31;;;-2.17;83.86
83843;BME280;73869;52.336;21.182;2023-12-04T09:43:44;101260.91;;;-2.14;83.94
83843;BME280;73869;52.336;21.182;2023-12-04T09:46:13;101271.22;;;-2.10;84.19
83843;BME280;73869;52.336;21.182;2023-12-04T09:48:41;101268.31;;;-2.18;82.78
83843;BME280;73869;52.336;21.182;2023-12-04T09:51:09;101262.03;;;-2.06;83.09
83843;BME280;73869;52.336;21.182;2023-12-04T09:53:40;101267.59;;;-2.09;83.53
83843;BME280;73869;52.336;21.182;2023-12-04T09:56:08;101262.28;;;-1.98;82.89
83843;BME280;73869;52.336;21.182;2023-12-04T09:58:39;101262.03;;;-2.06;83.43
83843;BME280;73869;52.336;21.182;2023-12-04T10:01:07;101266.16;;;-2.13;83.63
83843;BME280;73869;52.336;21.182;2023-12-04T10:03:36;101275.69;;;-2.10;82.84
83843;BME280;73869;52.336;21.182;2023-12-04T10:06:05;101272.41;;;-2.14;82.70
83843;BME280;73869;52.336;21.182;2023-12-04T10:08:33;101260.94;;;-2.03;83.72
83843;BME280;73869;52.336;21.182;2023-12-04T10:10:59;101256.94;;;-2.09;84.11
83843;BME280;73869;52.336;21.182;2023-12-04T10:13:26;101262.25;;;-2.09;83.64
83843;BME280;73869;52.336;21.182;2023-12-04T10:15:53;101272.88;;;-2.20;83.44
83843;BME280;73869;52.336;21.182;2023-12-04T10:18:27;101265.28;;;-2.13;82.97
83843;BME280;73869;52.336;21.182;2023-12-04T10:20:57;101243.88;;;-2.23;84.31
83843;BME280;73869;52.336;21.182;2023-12-04T10:23:37;101252.22;;;-2.16;83.37
83843;BME280;73869;52.336;21.182;2023-12-04T10:26:04;101254.88;;;-2.16;83.12
83843;BME280;73869;52.336;21.182;2023-12-04T10:28:37;101255.88;;;-2.06;83.49
83843;BME280;73869;52.336;21.182;2023-12-04T10:31:32;101243.41;;;-2.06;81.92
83843;BME280;73869;52.336;21.182;2023-12-04T10:34:10;101268.09;;;-1.93;83.44
83843;BME280;73869;52.336;21.182;2023-12-04T10:36:38;101259.50;;;-1.96;83.24
83843;BME280;73869;52.336;21.182;2023-12-04T10:39:05;101257.06;;;-1.99;82.71
83843;BME280;73869;52.336;21.182;2023-12-04T10:41:35;101263.63;;;-1.92;82.39
83843;BME280;73869;52.336;21.182;2023-12-04T10:44:15;101262.31;;;-1.87;81.38
83843;BME280;73869;52.336;21.182;2023-12-04T10:46:43;101255.50;;;-2.02;82.66
83843;BME280;73869;52.336;21.182;2023-12-04T10:49:13;101259.97;;;-2.02;82.79
83843;BME280;73869;52.336;21.182;2023-12-04T10:51:42;101265.19;;;-2.01;83.27
83843;BME280;73869;52.336;21.182;2023-12-04T10:54:10;101267.34;;;-1.95;82.32
83843;BME280;73869;52.336;21.182;2023-12-04T10:56:40;101264.81;;;-1.96;81.99
83843;BME280;73869;52.336;21.182;2023-12-04T10:59:11;101262.31;;;-1.87;81.94
83843;BME280;73869;52.336;21.182;2023-12-04T11:01:41;101257.31;;;-1.91;82.48
83843;BME280;73869;52.336;21.182;2023-12-04T11:04:17;101244.50;;;-1.97;81.84
83843;BME280;73869;52.336;21.182;2023-12-04T11:07:15;101258.78;;;-1.87;82.36
83843;BME280;73869;52.336;21.182;2023-12-04T11:09:42;101261.56;;;-1.89;82.96
83843;BME280;73869;52.336;21.182;2023-12-04T11:12:11;101260.59;;;-1.88;82.26
83843;BME280;73869;52.336;21.182;2023-12-04T11:14:45;101259.75;;;-1.88;82.72
83843;BME280;73869;52.336;21.182;2023-12-04T11:17:14;101257.06;;;-1.88;83.18
83843;BME280;73869;52.336;21.182;2023-12-04T11:19:49;101242.56;;;-1.95;83.03
83843;BME280;73869;52.336;21.182;2023-12-04T11:22:18;101234.97;;;-1.89;82.12
83843;BME280;73869;52.336;21.182;2023-12-04T11:24:47;101261.56;;;-1.78;82.14
83843;BME280;73869;52.336;21.182;2023-12-04T11:27:15;101256.13;;;-1.65;81.35
83843;BME280;73869;52.336;21.182;2023-12-04T11:29:42;101260.88;;;-1.58;82.23
83843;BME280;73869;52.336;21.182;2023-12-04T11:32:14;101255.78;;;-1.61;81.71
83843;BME280;73869;52.336;21.182;2023-12-04T11:34:47;101259.06;;;-1.46;81.08
83843;BME280;73869;52.336;21.182;2023-12-04T11:37:14;101257.69;;;-1.41;81.64
83843;BME280;73869;52.336;21.182;2023-12-04T11:39:43;101263.25;;;-1.33;80.64
83843;BME280;73869;52.336;21.182;2023-12-04T11:42:13;101255.03;;;-1.41;80.61
83843;BME280;73869;52.336;21.182;2023-12-04T11:44:41;101254.81;;;-1.38;80.25
83843;BME280;73869;52.336;21.182;2023-12-04T11:47:08;101243.19;;;-1.37;81.16
83843;BME280;73869;52.336;21.182;2023-12-04T11:49:35;101245.56;;;-1.22;81.09
83843;BME280;73869;52.336;21.182;2023-12-04T11:52:03;101245.22;;;-1.18;79.72
83843;BME280;73869;52.336;21.182;2023-12-04T11:54:59;101234.78;;;-1.21;79.58
83843;BME280;73869;52.336;21.182;2023-12-04T11:57:32;101243.63;;;-1.20;79.92
83843;BME280;73869;52.336;21.182;2023-12-04T12:00:18;101244.75;;;-1.23;80.81
83843;BME280;73869;52.336;21.182;2023-12-04T12:03:00;101231.75;;;-1.27;79.84
83843;BME280;73869;52.336;21.182;2023-12-04T12:05:33;101237.44;;;-1.21;80.74
83843;BME280;73869;52.336;21.182;2023-12-04T12:08:01;101232.38;;;-1.24;79.89
83843;BME280;73869;52.336;21.182;2023-12-04T12:10:31;101226.44;;;-1.27;78.97
83843;BME280;73869;52.336;21.182;2023-12-04T12:12:59;101234.09;;;-1.23;79.77
83843;BME280;73869;52.336;21.182;2023-12-04T12:15:27;101217.25;;;-1.23;80.68
83843;BME280;73869;52.336;21.182;2023-12-04T12:17:54;101226.88;;;-1.00;78.64
83843;BME280;73869;52.336;21.182;2023-12-04T12:20:21;101227.47;;;-0.97;80.14
83843;BME280;73869;52.336;21.182;2023-12-04T12:22:49;101224.59;;;-1.05;78.39
83843;BME280;73869;52.336;21.182;2023-12-04T12:25:17;101234.41;;;-1.05;78.43
83843;BME280;73869;52.336;21.182;2023-12-04T12:27:46;101237.09;;;-1.16;79.95
83843;BME280;73869;52.336;21.182;2023-12-04T12:30:13;101230.91;;;-1.17;79.90
83843;BME280;73869;52.336;21.182;2023-12-04T12:32:40;101224.94;;;-1.09;79.69
83843;BME280;73869;52.336;21.182;2023-12-04T12:35:07;101220.34;;;-1.07;78.92
83843;BME280;73869;52.336;21.182;2023-12-04T12:37:34;101224.81;;;-1.08;78.55
83843;BME280;73869;52.336;21.182;2023-12-04T12:40:03;101221.94;;;-1.05;80.16
83843;BME280;73869;52.336;21.182;2023-12-04T12:42:30;101223.59;;;-1.04;80.27
83843;BME280;73869;52.336;21.182;2023-12-04T12:45:01;101219.41;;;-1.06;80.01